Brenton Reef — KREQ — position and weather

sailwx.info

Track history (hours):
 
Tides and Currents Weather Stations Pressure Air Temp Water Temp Dewpoint Dewpoint Depression Visibility Wind Speed Wind Dir Waves Ship Positions

Brenton Reef

Owner: Seabulk Tankers, Inc., Fort Lauderdale, FL. More information available from US FCC via Universal Licensing System and Coast Guard Vessel Documentation Center.

Last reported at 2018-May-24 21:01 UTC. Time now 2018-May-24 21:20 UTC.
Position N 26°06' W 080°07'.

Length 189 m; draft 11.7 m.

Type: Tanker. MMSI: 368004000.

Date/timePositionNaut miles runAvg speedWind from/ knotsBaromVisibWave heightAir tempDewpointWater temp
2018-May-24 21:01N 26°06' W 080°07'0 0.0
2018-May-24 20:31N 26°06' W 080°07'0 0.0
2018-May-24 20:01N 26°06' W 080°07'0 0.0
2018-May-24 19:30N 26°06' W 080°07'0 0.0
2018-May-24 19:01N 26°06' W 080°07'0 0.0
2018-May-24 18:31N 26°06' W 080°07'0 0.0
2018-May-24 18:01N 26°06' W 080°07'0 0.0
2018-May-24 17:30N 26°06' W 080°07'0 0.0
2018-May-24 17:00N 26°06' W 080°07'0 0.0
2018-May-24 16:31N 26°06' W 080°07'0 0.0
2018-May-24 16:00N 26°06' W 080°07'0 0.0
2018-May-24 15:30N 26°06' W 080°07'0 0.0
2018-May-24 15:00N 26°06' W 080°07'0 0.0
2018-May-24 14:30N 26°06' W 080°07'0 0.0
2018-May-24 14:00N 26°06' W 080°07'0 0.0
2018-May-24 13:31N 26°06' W 080°07'0 0.0
2018-May-24 09:01N 26°06' W 080°07'0 0.0
2018-May-24 08:31N 26°06' W 080°07'0 0.0
2018-May-24 08:01N 26°06' W 080°07'0 0.0
2018-May-24 07:30N 26°06' W 080°07'0 0.0
2018-May-24 07:01N 26°06' W 080°07'0 0.0
2018-May-24 06:31N 26°06' W 080°07'0 0.0
2018-May-24 06:00N 26°06' W 080°07'0 0.0
2018-May-24 05:30N 26°06' W 080°07'0 0.0
2018-May-24 05:01N 26°06' W 080°07'0 0.0
2018-May-24 04:31N 26°06' W 080°07'0 0.0
2018-May-24 04:01N 26°06' W 080°07'0 0.0
2018-May-24 03:31N 26°06' W 080°07'0 0.0
2018-May-24 03:01N 26°06' W 080°07'0 0.0
2018-May-24 02:30N 26°06' W 080°07'0 0.0
2018-May-24 02:01N 26°06' W 080°07'0 0.0
2018-May-24 01:31N 26°06' W 080°07'0 0.0
2018-May-24 01:01N 26°06' W 080°07'0 0.0
2018-May-24 00:30N 26°06' W 080°07'0 0.0
2018-May-24 00:01N 26°06' W 080°07'0 0.0
2018-May-23 23:31N 26°06' W 080°07'0 0.0
2018-May-23 23:01N 26°06' W 080°07'0 0.0
2018-May-23 22:30N 26°06' W 080°07'0 0.0
2018-May-23 22:00N 26°06' W 080°07'0 0.0
2018-May-23 21:31N 26°06' W 080°07'0 0.0
2018-May-23 21:01N 26°06' W 080°07'0 0.0
2018-May-23 20:30N 26°06' W 080°07'0 0.0
2018-May-23 20:00N 26°06' W 080°07'0 0.0
2018-May-23 19:31N 26°06' W 080°07'0 0.1
2018-May-23 19:01N 26°06' W 080°07'0 0.8
2018-May-23 18:31N 26°06' W 080°07'3 6.8
2018-May-23 18:00N 26°04' W 080°04'2 3.2
2018-May-23 17:31N 26°02' W 080°03'611.1
2018-May-23 17:00N 25°57' W 080°01'918.1
2018-May-23 16:31N 25°49' W 079°57'918.1
2018-May-23 16:01N 25°40' W 079°57'918.5
2018-May-23 15:31N 25°31' W 079°58'918.3
2018-May-23 15:00N 25°22' W 079°59'26112.4
2018-May-22 18:00N 25°18' W 084°48'9215.4 090 / 191020.510.8 26.625.9
2018-May-22 12:00N 26°24' W 086°00'35715.5 100 / 191018.5 5.4 26.024.626.0
2018-May-21 13:00N 27°48' W 092°30'13312.9 140 / 101018.510.8 26.021.526.0
2018-May-21 02:41N 29°10' W 094°29'213.7
2018-May-21 02:30N 29°12' W 094°31'713.4
2018-May-21 02:00N 29°17' W 094°36'612.2
2018-May-21 01:30N 29°20' W 094°42'612.7
2018-May-21 01:00N 29°23' W 094°48'612.0
2018-May-21 00:30N 29°28' W 094°51'510.9
2018-May-21 00:00N 29°33' W 094°54'510.7
2018-May-20 23:30N 29°37' W 094°58'5 9.7
2018-May-20 23:00N 29°42' W 094°60'4 7.2
2018-May-20 22:30N 29°44' W 095°03'3 5.1
2018-May-20 22:00N 29°45' W 095°06'3 5.7
2018-May-20 21:30N 29°44' W 095°09'2 4.5
2018-May-20 20:58N 29°44' W 095°12'0 0.0
2018-May-18 22:52N 29°45' W 095°12'0 0.0
2018-May-18 22:30N 29°45' W 095°12'0 0.8
2018-May-18 22:00N 29°45' W 095°12'3 5.1
2018-May-18 21:30N 29°44' W 095°09'3 5.6
2018-May-18 21:00N 29°45' W 095°06'3 6.8
2018-May-18 20:30N 29°44' W 095°02'4 7.8
2018-May-18 20:00N 29°41' W 094°59'612.9
2018-May-18 19:30N 29°35' W 094°56'713.5
2018-May-18 19:00N 29°30' W 094°52'714.1
2018-May-18 18:30N 29°23' W 094°49'713.1
2018-May-18 18:00N 29°21' W 094°42'12 9.5
2018-May-18 16:42N 29°16' W 094°28'0 0.1
2018-May-18 15:35N 29°16' W 094°28'0 0.0
2018-May-18 15:26N 29°16' W 094°28'0 0.0
2018-May-18 14:53N 29°16' W 094°28'0 0.0
2018-May-18 14:29N 29°16' W 094°28'0 0.0
2018-May-18 13:59N 29°16' W 094°28'0 0.0
2018-May-18 12:50N 29°16' W 094°28'0 0.0
2018-May-18 12:29N 29°16' W 094°28'0 0.0
2018-May-18 11:59N 29°16' W 094°28'0 0.0
2018-May-18 11:29N 29°16' W 094°28'0 0.0
2018-May-18 10:59N 29°16' W 094°28'0 0.0
2018-May-18 10:29N 29°16' W 094°28'0 0.0
2018-May-18 09:59N 29°16' W 094°28'0 0.0
2018-May-18 09:29N 29°16' W 094°28'0 0.0
2018-May-18 08:59N 29°16' W 094°28'0 0.0
2018-May-18 08:29N 29°16' W 094°28'0 0.0
2018-May-18 07:59N 29°16' W 094°28'0 0.0
2018-May-18 07:29N 29°16' W 094°28'0 0.0
2018-May-18 06:59N 29°16' W 094°28'0 0.0
2018-May-18 06:29N 29°16' W 094°28'0 0.0
2018-May-18 05:59N 29°16' W 094°28'0 0.0
2018-May-18 05:29N 29°16' W 094°28'0 0.0
2018-May-18 04:59N 29°16' W 094°28'0 0.0
2018-May-18 04:23N 29°16' W 094°28'0 0.0
2018-May-18 03:59N 29°16' W 094°28'0 0.0
2018-May-18 03:29N 29°16' W 094°28'0 0.0
2018-May-18 02:59N 29°16' W 094°28'0 0.0
2018-May-18 02:29N 29°16' W 094°28'0 0.0
2018-May-18 01:59N 29°16' W 094°28'0 0.0
2018-May-18 01:29N 29°16' W 094°28'0 0.0
2018-May-18 00:59N 29°16' W 094°28'0 0.0
2018-May-18 00:29N 29°16' W 094°28'0 0.0
2018-May-17 23:59N 29°16' W 094°28'0 0.0
2018-May-17 23:29N 29°16' W 094°28'0 0.0
2018-May-17 22:59N 29°16' W 094°28'0 0.0
2018-May-17 22:29N 29°16' W 094°28'0 0.0
2018-May-17 21:59N 29°16' W 094°28'0 0.0
2018-May-17 21:26N 29°16' W 094°28'0 0.0
2018-May-17 20:59N 29°16' W 094°28'0 0.0
2018-May-17 20:29N 29°16' W 094°28'0 0.0
2018-May-17 19:59N 29°16' W 094°28'0 0.0
2018-May-17 19:29N 29°16' W 094°28'0 0.0
2018-May-17 18:59N 29°16' W 094°28'0 0.0
2018-May-17 18:29N 29°16' W 094°28'0 0.0
2018-May-17 14:41N 29°16' W 094°28'0 0.0
2018-May-17 14:29N 29°16' W 094°28'0 0.0
2018-May-17 13:53N 29°16' W 094°28'0 0.0
2018-May-17 13:29N 29°16' W 094°28'0 0.0
2018-May-17 12:59N 29°16' W 094°28'0 0.0
2018-May-17 12:29N 29°16' W 094°28'0 0.0
2018-May-17 11:56N 29°16' W 094°28'0 0.0
2018-May-17 11:26N 29°16' W 094°28'0 0.0
2018-May-17 10:41N 29°16' W 094°28'0 0.0
2018-May-17 10:20N 29°16' W 094°28'0 0.0
2018-May-17 09:53N 29°16' W 094°28'0 0.0
2018-May-17 09:29N 29°16' W 094°28'0 0.0
2018-May-17 08:59N 29°16' W 094°28'0 0.0
2018-May-17 08:29N 29°16' W 094°28'0 0.0
2018-May-17 07:59N 29°16' W 094°28'0 0.0
2018-May-17 07:29N 29°16' W 094°28'0 0.0
2018-May-17 06:59N 29°16' W 094°28'0 0.0
2018-May-17 06:29N 29°16' W 094°28'0 0.0
2018-May-17 05:59N 29°16' W 094°28'0 0.0
2018-May-17 05:29N 29°16' W 094°28'0 0.0
2018-May-17 04:56N 29°16' W 094°28'0 0.0
2018-May-17 04:29N 29°16' W 094°28'0 0.0
2018-May-17 03:59N 29°16' W 094°28'0 0.0
2018-May-17 03:29N 29°16' W 094°28'0 0.0
2018-May-17 02:59N 29°16' W 094°28'0 0.0
2018-May-17 02:29N 29°16' W 094°28'0 0.0
2018-May-17 01:59N 29°16' W 094°28'0 0.0
2018-May-17 01:29N 29°16' W 094°28'0 0.0
2018-May-17 00:59N 29°16' W 094°28'0 0.0
2018-May-17 00:29N 29°16' W 094°28'0 0.0
2018-May-16 23:59N 29°16' W 094°28'0 0.0
2018-May-16 23:29N 29°16' W 094°28'0 0.0
2018-May-16 22:59N 29°16' W 094°28'0 0.0
2018-May-16 22:26N 29°16' W 094°28'0 0.0
2018-May-16 21:59N 29°16' W 094°28'0 0.0
2018-May-16 21:29N 29°16' W 094°28'0 0.0
2018-May-16 20:59N 29°16' W 094°28'0 0.0
2018-May-16 20:29N 29°16' W 094°28'0 0.0
2018-May-16 19:59N 29°16' W 094°28'0 0.0
2018-May-16 19:29N 29°16' W 094°28'0 0.0
2018-May-16 18:56N 29°16' W 094°28'0 0.0
2018-May-16 18:29N 29°16' W 094°28'0 0.0
2018-May-16 17:59N 29°16' W 094°28'0 0.1
2018-May-16 17:29N 29°16' W 094°28'0 0.0
2018-May-16 16:56N 29°16' W 094°28'0 0.0
2018-May-16 16:20N 29°16' W 094°28'0 0.0
2018-May-16 15:56N 29°16' W 094°28'0 0.0
2018-May-16 15:29N 29°16' W 094°28'0 0.2
2018-May-16 15:00N 29°16' W 094°28'1 3.0
2018-May-16 14:30N 29°15' W 094°28'5 9.1
2018-May-16 14:00N 29°15' W 094°33'612.3
2018-May-16 13:30N 29°19' W 094°38'511.0
2018-May-16 13:00N 29°21' W 094°44'0 0.7
2018-May-16 12:29N 29°21' W 094°44'0 0.0
2018-May-16 11:59N 29°21' W 094°44'0 0.0
2018-May-16 11:29N 29°21' W 094°44'0 0.0
2018-May-16 10:59N 29°21' W 094°44'0 0.0
2018-May-16 10:29N 29°21' W 094°45'0 0.2
2018-May-16 09:56N 29°21' W 094°44'0 0.0
2018-May-16 09:29N 29°21' W 094°44'0 0.0
2018-May-16 08:59N 29°21' W 094°44'0 0.2
2018-May-16 08:29N 29°21' W 094°44'0 0.1
2018-May-16 07:59N 29°21' W 094°44'0 0.1
2018-May-16 07:29N 29°21' W 094°44'0 0.1
2018-May-16 06:59N 29°21' W 094°44'0 0.1
2018-May-16 06:29N 29°21' W 094°44'0 0.0
2018-May-16 05:59N 29°21' W 094°44'0 0.0
2018-May-16 05:29N 29°21' W 094°44'0 0.0
2018-May-16 04:59N 29°21' W 094°44'0 0.0
2018-May-16 04:29N 29°21' W 094°44'0 0.0
2018-May-16 03:59N 29°21' W 094°44'0 0.0
2018-May-16 03:29N 29°21' W 094°44'0 0.1
2018-May-16 02:59N 29°21' W 094°44'0 0.0
2018-May-16 02:26N 29°21' W 094°44'0 0.0
2018-May-16 01:59N 29°21' W 094°44'0 0.0
2018-May-16 01:29N 29°21' W 094°44'0 0.0
2018-May-16 00:59N 29°21' W 094°44'0 0.0
2018-May-16 00:26N 29°21' W 094°44'0 0.0
2018-May-15 23:59N 29°21' W 094°44'0 0.0
2018-May-15 23:26N 29°21' W 094°44'0 0.0
2018-May-15 22:59N 29°21' W 094°44'0 0.0
2018-May-15 22:23N 29°21' W 094°44'0 0.0
2018-May-15 21:17N 29°21' W 094°44'0 0.1
2018-May-15 20:50N 29°21' W 094°44'0 0.0
2018-May-15 20:29N 29°21' W 094°44'0 0.0
2018-May-15 19:59N 29°21' W 094°44'0 0.1
2018-May-15 19:29N 29°21' W 094°44'0 0.0
2018-May-15 18:56N 29°21' W 094°44'0 0.0
2018-May-15 18:29N 29°21' W 094°44'0 0.0
2018-May-15 17:59N 29°21' W 094°44'0 0.0
2018-May-15 17:30N 29°21' W 094°44'1 1.5
2018-May-15 16:59N 29°21' W 094°43'511.4
2018-May-15 16:30N 29°19' W 094°38'713.2
2018-May-15 16:00N 29°15' W 094°31'5 9.4
2018-May-15 15:30N 29°12' W 094°27'714.0
2018-May-15 15:01N 29°08' W 094°20'714.4
2018-May-15 14:30N 29°04' W 094°14'714.5
2018-May-15 14:01N 28°60' W 094°07'714.4
2018-May-15 13:30N 28°56' W 094°00'714.5
2018-May-15 13:00N 28°51' W 093°53'714.8
2018-May-15 12:31N 28°47' W 093°47'714.5
2018-May-15 12:01N 28°43' W 093°40'714.4
2018-May-15 11:30N 28°39' W 093°33'714.5
2018-May-15 11:00N 28°35' W 093°26'714.7
2018-May-15 10:30N 28°30' W 093°20'714.7
2018-May-15 10:00N 28°26' W 093°13'814.9
2018-May-15 09:30N 28°22' W 093°06'714.6
2018-May-15 09:00N 28°18' W 092°59'714.4
2018-May-15 08:31N 28°14' W 092°52'815.0
2018-May-15 07:59N 28°07' W 092°47'714.9
2018-May-15 07:30N 28°01' W 092°42'714.9
2018-May-15 07:01N 27°56' W 092°37'814.8
2018-May-15 06:30N 27°51' W 092°31'915.2
2018-May-15 05:56N 27°47' W 092°22'715.2
2018-May-15 05:30N 27°44' W 092°15'815.5
2018-May-15 05:00N 27°41' W 092°07'815.5
2018-May-15 04:31N 27°38' W 091°60'815.4
2018-May-15 03:58N 27°35' W 091°51'715.2
2018-May-15 03:30N 27°32' W 091°43'  
Track history (hours):
 
Tides and Currents Weather Stations Pressure Air Temp Water Temp Dewpoint Dewpoint Depression Visibility Wind Speed Wind Dir Waves Ship Positions

Brenton Reef

Owner: Seabulk Tankers, Inc., Fort Lauderdale, FL. More information available from US FCC via Universal Licensing System and Coast Guard Vessel Documentation Center.

Last reported at 2018-May-24 21:01 UTC. Time now 2018-May-24 21:20 UTC.
Position N 26°06' W 080°07'.

Length 189 m; draft 11.7 m.

Type: Tanker. MMSI: 368004000.

Date/timePositionNaut miles runAvg speedWind from/ knotsBaromVisibWave heightAir tempDewpointWater temp
2018-May-24 21:01N 26°06' W 080°07'0 0.0
2018-May-24 20:31N 26°06' W 080°07'0 0.0
2018-May-24 20:01N 26°06' W 080°07'0 0.0
2018-May-24 19:30N 26°06' W 080°07'0 0.0
2018-May-24 19:01N 26°06' W 080°07'0 0.0
2018-May-24 18:31N 26°06' W 080°07'0 0.0
2018-May-24 18:01N 26°06' W 080°07'0 0.0
2018-May-24 17:30N 26°06' W 080°07'0 0.0
2018-May-24 17:00N 26°06' W 080°07'0 0.0
2018-May-24 16:31N 26°06' W 080°07'0 0.0
2018-May-24 16:00N 26°06' W 080°07'0 0.0
2018-May-24 15:30N 26°06' W 080°07'0 0.0
2018-May-24 15:00N 26°06' W 080°07'0 0.0
2018-May-24 14:30N 26°06' W 080°07'0 0.0
2018-May-24 14:00N 26°06' W 080°07'0 0.0
2018-May-24 13:31N 26°06' W 080°07'0 0.0
2018-May-24 09:01N 26°06' W 080°07'0 0.0
2018-May-24 08:31N 26°06' W 080°07'0 0.0
2018-May-24 08:01N 26°06' W 080°07'0 0.0
2018-May-24 07:30N 26°06' W 080°07'0 0.0
2018-May-24 07:01N 26°06' W 080°07'0 0.0
2018-May-24 06:31N 26°06' W 080°07'0 0.0
2018-May-24 06:00N 26°06' W 080°07'0 0.0
2018-May-24 05:30N 26°06' W 080°07'0 0.0
2018-May-24 05:01N 26°06' W 080°07'0 0.0
2018-May-24 04:31N 26°06' W 080°07'0 0.0
2018-May-24 04:01N 26°06' W 080°07'0 0.0
2018-May-24 03:31N 26°06' W 080°07'0 0.0
2018-May-24 03:01N 26°06' W 080°07'0 0.0
2018-May-24 02:30N 26°06' W 080°07'0 0.0
2018-May-24 02:01N 26°06' W 080°07'0 0.0
2018-May-24 01:31N 26°06' W 080°07'0 0.0
2018-May-24 01:01N 26°06' W 080°07'0 0.0
2018-May-24 00:30N 26°06' W 080°07'0 0.0
2018-May-24 00:01N 26°06' W 080°07'0 0.0
2018-May-23 23:31N 26°06' W 080°07'0 0.0
2018-May-23 23:01N 26°06' W 080°07'0 0.0
2018-May-23 22:30N 26°06' W 080°07'0 0.0
2018-May-23 22:00N 26°06' W 080°07'0 0.0
2018-May-23 21:31N 26°06' W 080°07'0 0.0
2018-May-23 21:01N 26°06' W 080°07'0 0.0
2018-May-23 20:30N 26°06' W 080°07'0 0.0
2018-May-23 20:00N 26°06' W 080°07'0 0.0
2018-May-23 19:31N 26°06' W 080°07'0 0.1
2018-May-23 19:01N 26°06' W 080°07'0 0.8
2018-May-23 18:31N 26°06' W 080°07'3 6.8
2018-May-23 18:00N 26°04' W 080°04'2 3.2
2018-May-23 17:31N 26°02' W 080°03'611.1
2018-May-23 17:00N 25°57' W 080°01'918.1
2018-May-23 16:31N 25°49' W 079°57'918.1
2018-May-23 16:01N 25°40' W 079°57'918.5
2018-May-23 15:31N 25°31' W 079°58'918.3
2018-May-23 15:00N 25°22' W 079°59'26112.4
2018-May-22 18:00N 25°18' W 084°48'9215.4 090 / 191020.510.8 26.625.9
2018-May-22 12:00N 26°24' W 086°00'35715.5 100 / 191018.5 5.4 26.024.626.0
2018-May-21 13:00N 27°48' W 092°30'13312.9 140 / 101018.510.8 26.021.526.0
2018-May-21 02:41N 29°10' W 094°29'213.7
2018-May-21 02:30N 29°12' W 094°31'713.4
2018-May-21 02:00N 29°17' W 094°36'612.2
2018-May-21 01:30N 29°20' W 094°42'612.7
2018-May-21 01:00N 29°23' W 094°48'612.0
2018-May-21 00:30N 29°28' W 094°51'510.9
2018-May-21 00:00N 29°33' W 094°54'510.7
2018-May-20 23:30N 29°37' W 094°58'5 9.7
2018-May-20 23:00N 29°42' W 094°60'4 7.2
2018-May-20 22:30N 29°44' W 095°03'3 5.1
2018-May-20 22:00N 29°45' W 095°06'3 5.7
2018-May-20 21:30N 29°44' W 095°09'2 4.5
2018-May-20 20:58N 29°44' W 095°12'0 0.0
2018-May-18 22:52N 29°45' W 095°12'0 0.0
2018-May-18 22:30N 29°45' W 095°12'0 0.8
2018-May-18 22:00N 29°45' W 095°12'3 5.1
2018-May-18 21:30N 29°44' W 095°09'3 5.6
2018-May-18 21:00N 29°45' W 095°06'3 6.8
2018-May-18 20:30N 29°44' W 095°02'4 7.8
2018-May-18 20:00N 29°41' W 094°59'612.9
2018-May-18 19:30N 29°35' W 094°56'713.5
2018-May-18 19:00N 29°30' W 094°52'714.1
2018-May-18 18:30N 29°23' W 094°49'713.1
2018-May-18 18:00N 29°21' W 094°42'12 9.5
2018-May-18 16:42N 29°16' W 094°28'0 0.1
2018-May-18 15:35N 29°16' W 094°28'0 0.0
2018-May-18 15:26N 29°16' W 094°28'0 0.0
2018-May-18 14:53N 29°16' W 094°28'0 0.0
2018-May-18 14:29N 29°16' W 094°28'0 0.0
2018-May-18 13:59N 29°16' W 094°28'0 0.0
2018-May-18 12:50N 29°16' W 094°28'0 0.0
2018-May-18 12:29N 29°16' W 094°28'0 0.0
2018-May-18 11:59N 29°16' W 094°28'0 0.0
2018-May-18 11:29N 29°16' W 094°28'0 0.0
2018-May-18 10:59N 29°16' W 094°28'0 0.0
2018-May-18 10:29N 29°16' W 094°28'0 0.0
2018-May-18 09:59N 29°16' W 094°28'0 0.0
2018-May-18 09:29N 29°16' W 094°28'0 0.0
2018-May-18 08:59N 29°16' W 094°28'0 0.0
2018-May-18 08:29N 29°16' W 094°28'0 0.0
2018-May-18 07:59N 29°16' W 094°28'0 0.0
2018-May-18 07:29N 29°16' W 094°28'0 0.0
2018-May-18 06:59N 29°16' W 094°28'0 0.0
2018-May-18 06:29N 29°16' W 094°28'0 0.0
2018-May-18 05:59N 29°16' W 094°28'0 0.0
2018-May-18 05:29N 29°16' W 094°28'0 0.0
2018-May-18 04:59N 29°16' W 094°28'0 0.0
2018-May-18 04:23N 29°16' W 094°28'0 0.0
2018-May-18 03:59N 29°16' W 094°28'0 0.0
2018-May-18 03:29N 29°16' W 094°28'0 0.0
2018-May-18 02:59N 29°16' W 094°28'0 0.0
2018-May-18 02:29N 29°16' W 094°28'0 0.0
2018-May-18 01:59N 29°16' W 094°28'0 0.0
2018-May-18 01:29N 29°16' W 094°28'0 0.0
2018-May-18 00:59N 29°16' W 094°28'0 0.0
2018-May-18 00:29N 29°16' W 094°28'0 0.0
2018-May-17 23:59N 29°16' W 094°28'0 0.0
2018-May-17 23:29N 29°16' W 094°28'0 0.0
2018-May-17 22:59N 29°16' W 094°28'0 0.0
2018-May-17 22:29N 29°16' W 094°28'0 0.0
2018-May-17 21:59N 29°16' W 094°28'0 0.0
2018-May-17 21:26N 29°16' W 094°28'0 0.0
2018-May-17 20:59N 29°16' W 094°28'0 0.0
2018-May-17 20:29N 29°16' W 094°28'0 0.0
2018-May-17 19:59N 29°16' W 094°28'0 0.0
2018-May-17 19:29N 29°16' W 094°28'0 0.0
2018-May-17 18:59N 29°16' W 094°28'0 0.0
2018-May-17 18:29N 29°16' W 094°28'0 0.0
2018-May-17 14:41N 29°16' W 094°28'0 0.0
2018-May-17 14:29N 29°16' W 094°28'0 0.0
2018-May-17 13:53N 29°16' W 094°28'0 0.0
2018-May-17 13:29N 29°16' W 094°28'0 0.0
2018-May-17 12:59N 29°16' W 094°28'0 0.0
2018-May-17 12:29N 29°16' W 094°28'0 0.0
2018-May-17 11:56N 29°16' W 094°28'0 0.0
2018-May-17 11:26N 29°16' W 094°28'0 0.0
2018-May-17 10:41N 29°16' W 094°28'0 0.0
2018-May-17 10:20N 29°16' W 094°28'0 0.0
2018-May-17 09:53N 29°16' W 094°28'0 0.0
2018-May-17 09:29N 29°16' W 094°28'0 0.0
2018-May-17 08:59N 29°16' W 094°28'0 0.0
2018-May-17 08:29N 29°16' W 094°28'0 0.0
2018-May-17 07:59N 29°16' W 094°28'0 0.0
2018-May-17 07:29N 29°16' W 094°28'0 0.0
2018-May-17 06:59N 29°16' W 094°28'0 0.0
2018-May-17 06:29N 29°16' W 094°28'0 0.0
2018-May-17 05:59N 29°16' W 094°28'0 0.0
2018-May-17 05:29N 29°16' W 094°28'0 0.0
2018-May-17 04:56N 29°16' W 094°28'0 0.0
2018-May-17 04:29N 29°16' W 094°28'0 0.0
2018-May-17 03:59N 29°16' W 094°28'0 0.0
2018-May-17 03:29N 29°16' W 094°28'0 0.0
2018-May-17 02:59N 29°16' W 094°28'0 0.0
2018-May-17 02:29N 29°16' W 094°28'0 0.0
2018-May-17 01:59N 29°16' W 094°28'0 0.0
2018-May-17 01:29N 29°16' W 094°28'0 0.0
2018-May-17 00:59N 29°16' W 094°28'0 0.0
2018-May-17 00:29N 29°16' W 094°28'0 0.0
2018-May-16 23:59N 29°16' W 094°28'0 0.0
2018-May-16 23:29N 29°16' W 094°28'0 0.0
2018-May-16 22:59N 29°16' W 094°28'0 0.0
2018-May-16 22:26N 29°16' W 094°28'0 0.0
2018-May-16 21:59N 29°16' W 094°28'0 0.0
2018-May-16 21:29N 29°16' W 094°28'0 0.0
2018-May-16 20:59N 29°16' W 094°28'0 0.0
2018-May-16 20:29N 29°16' W 094°28'0 0.0
2018-May-16 19:59N 29°16' W 094°28'0 0.0
2018-May-16 19:29N 29°16' W 094°28'0 0.0
2018-May-16 18:56N 29°16' W 094°28'0 0.0
2018-May-16 18:29N 29°16' W 094°28'0 0.0
2018-May-16 17:59N 29°16' W 094°28'0 0.1
2018-May-16 17:29N 29°16' W 094°28'0 0.0
2018-May-16 16:56N 29°16' W 094°28'0 0.0
2018-May-16 16:20N 29°16' W 094°28'0 0.0
2018-May-16 15:56N 29°16' W 094°28'0 0.0
2018-May-16 15:29N 29°16' W 094°28'0 0.2
2018-May-16 15:00N 29°16' W 094°28'1 3.0
2018-May-16 14:30N 29°15' W 094°28'5 9.1
2018-May-16 14:00N 29°15' W 094°33'612.3
2018-May-16 13:30N 29°19' W 094°38'511.0
2018-May-16 13:00N 29°21' W 094°44'0 0.7
2018-May-16 12:29N 29°21' W 094°44'0 0.0
2018-May-16 11:59N 29°21' W 094°44'0 0.0
2018-May-16 11:29N 29°21' W 094°44'0 0.0
2018-May-16 10:59N 29°21' W 094°44'0 0.0
2018-May-16 10:29N 29°21' W 094°45'0 0.2
2018-May-16 09:56N 29°21' W 094°44'0 0.0
2018-May-16 09:29N 29°21' W 094°44'0 0.0
2018-May-16 08:59N 29°21' W 094°44'0 0.2
2018-May-16 08:29N 29°21' W 094°44'0 0.1
2018-May-16 07:59N 29°21' W 094°44'0 0.1
2018-May-16 07:29N 29°21' W 094°44'0 0.1
2018-May-16 06:59N 29°21' W 094°44'0 0.1
2018-May-16 06:29N 29°21' W 094°44'0 0.0
2018-May-16 05:59N 29°21' W 094°44'0 0.0
2018-May-16 05:29N 29°21' W 094°44'0 0.0
2018-May-16 04:59N 29°21' W 094°44'0 0.0
2018-May-16 04:29N 29°21' W 094°44'0 0.0
2018-May-16 03:59N 29°21' W 094°44'0 0.0
2018-May-16 03:29N 29°21' W 094°44'0 0.1
2018-May-16 02:59N 29°21' W 094°44'0 0.0
2018-May-16 02:26N 29°21' W 094°44'0 0.0
2018-May-16 01:59N 29°21' W 094°44'0 0.0
2018-May-16 01:29N 29°21' W 094°44'0 0.0
2018-May-16 00:59N 29°21' W 094°44'0 0.0
2018-May-16 00:26N 29°21' W 094°44'0 0.0
2018-May-15 23:59N 29°21' W 094°44'0 0.0
2018-May-15 23:26N 29°21' W 094°44'0 0.0
2018-May-15 22:59N 29°21' W 094°44'0 0.0
2018-May-15 22:23N 29°21' W 094°44'0 0.0
2018-May-15 21:17N 29°21' W 094°44'0 0.1
2018-May-15 20:50N 29°21' W 094°44'0 0.0
2018-May-15 20:29N 29°21' W 094°44'0 0.0
2018-May-15 19:59N 29°21' W 094°44'0 0.1
2018-May-15 19:29N 29°21' W 094°44'0 0.0
2018-May-15 18:56N 29°21' W 094°44'0 0.0
2018-May-15 18:29N 29°21' W 094°44'0 0.0
2018-May-15 17:59N 29°21' W 094°44'0 0.0
2018-May-15 17:30N 29°21' W 094°44'1 1.5
2018-May-15 16:59N 29°21' W 094°43'511.4
2018-May-15 16:30N 29°19' W 094°38'713.2
2018-May-15 16:00N 29°15' W 094°31'5 9.4
2018-May-15 15:30N 29°12' W 094°27'714.0
2018-May-15 15:01N 29°08' W 094°20'714.4
2018-May-15 14:30N 29°04' W 094°14'714.5
2018-May-15 14:01N 28°60' W 094°07'714.4
2018-May-15 13:30N 28°56' W 094°00'714.5
2018-May-15 13:00N 28°51' W 093°53'714.8
2018-May-15 12:31N 28°47' W 093°47'714.5
2018-May-15 12:01N 28°43' W 093°40'714.4
2018-May-15 11:30N 28°39' W 093°33'714.5
2018-May-15 11:00N 28°35' W 093°26'714.7
2018-May-15 10:30N 28°30' W 093°20'714.7
2018-May-15 10:00N 28°26' W 093°13'814.9
2018-May-15 09:30N 28°22' W 093°06'714.6
2018-May-15 09:00N 28°18' W 092°59'714.4
2018-May-15 08:31N 28°14' W 092°52'815.0
2018-May-15 07:59N 28°07' W 092°47'714.9
2018-May-15 07:30N 28°01' W 092°42'714.9
2018-May-15 07:01N 27°56' W 092°37'814.8
2018-May-15 06:30N 27°51' W 092°31'915.2
2018-May-15 05:56N 27°47' W 092°22'715.2
2018-May-15 05:30N 27°44' W 092°15'815.5
2018-May-15 05:00N 27°41' W 092°07'815.5
2018-May-15 04:31N 27°38' W 091°60'815.4
2018-May-15 03:58N 27°35' W 091°51'715.2
2018-May-15 03:30N 27°32' W 091°43'  

Dump ship's entire track history